Map

Track Data

SID SEASON NUMBER BASIN SUBBASIN NAME ISO_TIME NATURE LAT LON WMO_WIND WMO_PRES WMO_AGENCY TRACK_TYPE DIST2LAND LANDFALL IFLAG USA_AGENCY USA_ATCF_ID USA_LAT USA_LON USA_RECORD USA_STATUS USA_WIND USA_PRES USA_SSHS USA_R34_NE USA_R34_SE USA_R34_SW USA_R34_NW USA_R50_NE USA_R50_SE USA_R50_SW USA_R50_NW USA_R64_NE USA_R64_SE USA_R64_SW USA_R64_NW USA_POCI USA_ROCI USA_RMW USA_EYE TOKYO_LAT TOKYO_LON TOKYO_GRADE TOKYO_WIND TOKYO_PRES TOKYO_R50_DIR TOKYO_R50_LONG TOKYO_R50_SHORT TOKYO_R30_DIR TOKYO_R30_LONG TOKYO_R30_SHORT TOKYO_LAND CMA_LAT CMA_LON CMA_CAT CMA_WIND CMA_PRES HKO_LAT HKO_LON HKO_CAT HKO_WIND HKO_PRES NEWDELHI_LAT NEWDELHI_LON NEWDELHI_GRADE NEWDELHI_WIND NEWDELHI_PRES NEWDELHI_CI NEWDELHI_DP NEWDELHI_POCI REUNION_LAT REUNION_LON REUNION_TYPE REUNION_WIND REUNION_PRES REUNION_TNUM REUNION_CI REUNION_RMW REUNION_R34_NE REUNION_R34_SE REUNION_R34_SW REUNION_R34_NW REUNION_R50_NE REUNION_R50_SE REUNION_R50_SW REUNION_R50_NW REUNION_R64_NE REUNION_R64_SE REUNION_R64_SW REUNION_R64_NW BOM_LAT BOM_LON BOM_TYPE BOM_WIND BOM_PRES BOM_TNUM BOM_CI BOM_RMW BOM_R34_NE BOM_R34_SE BOM_R34_SW BOM_R34_NW BOM_R50_NE BOM_R50_SE BOM_R50_SW BOM_R50_NW BOM_R64_NE BOM_R64_SE BOM_R64_SW BOM_R64_NW BOM_ROCI BOM_POCI BOM_EYE BOM_POS_METHOD BOM_PRES_METHOD NADI_LAT NADI_LON NADI_CAT NADI_WIND NADI_PRES WELLINGTON_LAT WELLINGTON_LON WELLINGTON_WIND WELLINGTON_PRES DS824_LAT DS824_LON DS824_STAGE DS824_WIND DS824_PRES TD9636_LAT TD9636_LON TD9636_STAGE TD9636_WIND TD9636_PRES TD9635_LAT TD9635_LON TD9635_WIND TD9635_PRES TD9635_ROCI NEUMANN_LAT NEUMANN_LON NEUMANN_CLASS NEUMANN_WIND NEUMANN_PRES MLC_LAT MLC_LON MLC_CLASS MLC_WIND MLC_PRES USA_GUST BOM_GUST BOM_GUST_PER REUNION_GUST REUNION_GUST_PER USA_SEAHGT USA_SEARAD_NE USA_SEARAD_SE USA_SEARAD_SW USA_SEARAD_NW STORM_SPEED STORM_DIR
1902153N18123 1902 17 WP MM NOT_NAMED 1902-06-01 16:00:00 NR 17.6000 122.900 main 62 62 __________O___ -1 17.6000 122.900 2 3 344
1902153N18123 1902 17 WP MM NOT_NAMED 1902-06-01 18:00:00 NR 17.6849 122.887 main 69 69 __________P___ -1 17.6849 122.887 2 3 352
1902153N18123 1902 17 WP MM NOT_NAMED 1902-06-01 21:00:00 NR 17.8179 122.860 main 77 62 __________P___ -1 17.8179 122.860 2 3 347
1902153N18123 1902 17 WP MM NOT_NAMED 1902-06-02 00:00:00 NR 17.9655 122.814 main 62 47 __________P___ -1 17.9655 122.814 2 3 339
1902153N18123 1902 17 WP MM NOT_NAMED 1902-06-02 03:00:00 NR 18.1363 122.735 main 47 43 __________P___ -1 18.1363 122.735 2 4 336
1902153N18123 1902 17 WP MM NOT_NAMED 1902-06-02 04:00:00 NR 18.2000 122.700 main 43 31 __________O___ -1 18.2000 122.700 2 5 331
1902153N18123 1902 17 WP MM NOT_NAMED 1902-06-02 06:00:00 NR 18.3385 122.614 main 31 21 __________P___ -1 18.3385 122.614 2 5 327
1902153N18123 1902 17 WP MM NOT_NAMED 1902-06-02 09:00:00 NR 18.5714 122.447 main 24 24 __________P___ -1 18.5714 122.447 2 6 324
1902153N18123 1902 17 WP MM NOT_NAMED 1902-06-02 12:00:00 NR 18.8290 122.238 main 44 44 __________P___ -1 18.8290 122.238 2 7 321
1902153N18123 1902 17 WP MM NOT_NAMED 1902-06-02 15:00:00 NR 19.1050 121.991 main 79 79 __________P___ -1 19.1050 121.991 2 7 319
1902153N18123 1902 17 WP MM NOT_NAMED 1902-06-02 16:00:00 NR 19.2000 121.900 main 91 91 __________O___ -1 19.2000 121.900 2 8 318
1902153N18123 1902 17 WP MM NOT_NAMED 1902-06-02 18:00:00 NR 19.3913 121.712 main 105 105 __________P___ -1 19.3913 121.712 2 8 316
1902153N18123 1902 17 WP MM NOT_NAMED 1902-06-02 21:00:00 NR 19.6908 121.398 main 133 130 __________P___ -1 19.6908 121.398 2 9 315
1902153N18123 1902 17 WP MM NOT_NAMED 1902-06-03 00:00:00 NR 19.9971 121.061 main 158 156 __________P___ -1 19.9971 121.061 2 9 313
1902153N18123 1902 17 WP MM NOT_NAMED 1902-06-03 03:00:00 NR 20.3009 120.714 main 178 167 __________P___ -1 20.3009 120.714 2 9 313
1902153N18123 1902 17 WP MM NOT_NAMED 1902-06-03 04:00:00 NR 20.4000 120.600 main 168 148 __________O___ -1 20.4000 120.600 2 9 313
1902153N18123 1902 17 WP MM NOT_NAMED 1902-06-03 06:00:00 NR 20.5941 120.383 main 148 127 __________P___ -1 20.5941 120.383 2 8 313
1902153N18123 1902 17 WP MM NOT_NAMED 1902-06-03 09:00:00 NR 20.8793 120.058 main 127 123 __________P___ -1 20.8793 120.058 2 8 313
1902153N18123 1902 17 WP MM NOT_NAMED 1902-06-03 12:00:00 NR 21.1543 119.733 main 129 129 __________P___ -1 21.1543 119.733 2 8 312
1902153N18123 1902 17 WP MM NOT_NAMED 1902-06-03 15:00:00 NR 21.4162 119.408 main 145 141 __________P___ -1 21.4162 119.408 2 8 311
1902153N18123 1902 17 WP MM NOT_NAMED 1902-06-03 16:00:00 NR 21.5000 119.300 main 151 151 __________O___ -1 21.5000 119.300 2 8 308
1902153N18123 1902 17 WP MM NOT_NAMED 1902-06-03 18:00:00 NR 21.6587 119.078 main 152 152 __________P___ -1 21.6587 119.078 2 8 307
1902153N18123 1902 17 WP MM NOT_NAMED 1902-06-03 21:00:00 NR 21.8842 118.745 main 177 177 __________P___ -1 21.8842 118.745 2 8 306
1902153N18123 1902 17 WP MM NOT_NAMED 1902-06-04 00:00:00 NR 22.1029 118.417 main 196 164 __________P___ -1 22.1029 118.417 2 7 306
1902153N18123 1902 17 WP MM NOT_NAMED 1902-06-04 03:00:00 NR 22.3241 118.101 main 164 150 __________P___ -1 22.3241 118.101 2 7 308
1902153N18123 1902 17 WP MM NOT_NAMED 1902-06-04 04:00:00 NR 22.4000 118.000 main 150 123 __________O___ -1 22.4000 118.000 2 7 311
1902153N18123 1902 17 WP MM NOT_NAMED 1902-06-04 06:00:00 NR 22.5581 117.810 main 123 88 __________P___ -1 22.5581 117.810 2 7 313
1902153N18123 1902 17 WP MM NOT_NAMED 1902-06-04 09:00:00 NR 22.8016 117.538 main 88 49 __________P___ -1 22.8016 117.538 2 7 315
1902153N18123 1902 17 WP MM NOT_NAMED 1902-06-04 12:00:00 NR 23.0529 117.271 main 49 15 __________P___ -1 23.0529 117.271 2 7 316
1902153N18123 1902 17 WP MM NOT_NAMED 1902-06-04 15:00:00 NR 23.3119 116.996 main 15 0 __________P___ -1 23.3119 116.996 2 7 316
1902153N18123 1902 17 WP MM NOT_NAMED 1902-06-04 16:00:00 NR 23.4000 116.900 main 0 0 __________O___ -1 23.4000 116.900 2 8 315
1902153N18123 1902 17 WP MM NOT_NAMED 1902-06-04 18:00:00 NR 23.5786 116.701 main 0 0 __________P___ -1 23.5786 116.701 2 8 314
1902153N18123 1902 17 WP MM NOT_NAMED 1902-06-04 21:00:00 NR 23.8514 116.385 main 0 0 __________P___ -1 23.8514 116.385 2 8 313
1902153N18123 1902 17 WP MM NOT_NAMED 1902-06-05 00:00:00 NR 24.1282 116.055 main 0 0 __________P___ -1 24.1282 116.055 2 8 312
1902153N18123 1902 17 WP MM NOT_NAMED 1902-06-05 03:00:00 NR 24.4070 115.714 main 0 0 __________P___ -1 24.4070 115.714 2 8 312
1902153N18123 1902 17 WP MM NOT_NAMED 1902-06-05 04:00:00 NR 24.5000 115.600 main 0 __________O___ -1 24.5000 115.600 7 8 311

Digital Typhoon Data and Search

About IBTrACS Database

This database is a web-friendly format of International Best Track Archive for Climate Stewardship (IBTrACS), a global best track data archive curated by NOAA dating back to 1842.

Updated: 2021-10-21